createdAt,value
2022-10-22T00:01:36.820Z,8.33
2022-10-22T00:03:36.846Z,8.32
2022-10-22T00:05:36.827Z,8.28
2022-10-22T00:07:36.832Z,8.31
2022-10-22T00:09:36.778Z,8.37
2022-10-22T00:11:37.022Z,8.34
2022-10-22T00:13:36.895Z,8.35
2022-10-22T00:15:36.777Z,8.36
2022-10-22T00:16:43.980Z,8.37
2022-10-22T00:18:43.992Z,8.28
2022-10-22T00:20:43.997Z,8.26
2022-10-22T00:22:44.066Z,8.28
2022-10-22T00:24:43.961Z,8.31
2022-10-22T00:26:43.987Z,8.25
2022-10-22T00:28:44.006Z,8.15
2022-10-22T00:30:43.953Z,8.12
2022-10-22T00:32:20.877Z,8.19
2022-10-22T00:34:20.897Z,8.16
2022-10-22T00:36:20.868Z,7.99
2022-10-22T00:38:20.864Z,8.01
2022-10-22T00:40:20.869Z,8.03
2022-10-22T00:42:20.872Z,8.08
2022-10-22T00:44:20.874Z,8
2022-10-22T00:47:25.818Z,7.91
2022-10-22T00:49:25.705Z,7.9
2022-10-22T00:51:25.698Z,7.89
2022-10-22T00:53:25.623Z,7.86
2022-10-22T00:55:25.631Z,7.94
2022-10-22T00:57:25.637Z,7.97
2022-10-22T00:59:25.622Z,7.95
2022-10-22T01:02:37.920Z,7.96
2022-10-22T01:04:37.637Z,7.94
2022-10-22T01:06:37.644Z,7.9
2022-10-22T01:08:37.735Z,7.89
2022-10-22T01:10:37.611Z,7.85
2022-10-22T01:12:37.902Z,7.8
2022-10-22T01:14:37.655Z,7.82
2022-10-22T01:17:51.497Z,7.59
2022-10-22T01:19:51.453Z,7.58
2022-10-22T01:21:51.480Z,7.49
2022-10-22T01:23:51.508Z,7.61
2022-10-22T01:25:51.525Z,7.6
2022-10-22T01:27:51.465Z,7.63
2022-10-22T01:29:51.455Z,7.66
2022-10-22T01:32:59.905Z,7.66
2022-10-22T01:34:59.894Z,7.35
2022-10-22T01:36:59.913Z,7.24
2022-10-22T01:38:59.891Z,7.42
2022-10-22T01:40:59.892Z,7.36
2022-10-22T01:42:59.941Z,7.03
2022-10-22T01:44:59.865Z,7.23
2022-10-22T01:48:38.642Z,6.93
2022-10-22T01:50:38.638Z,7.05
2022-10-22T01:52:38.714Z,6.85
2022-10-22T01:54:38.628Z,6.89
2022-10-22T01:56:38.637Z,6.87
2022-10-22T01:58:38.709Z,6.95
2022-10-22T02:00:38.687Z,7.04
2022-10-22T02:03:26.057Z,7.13
2022-10-22T02:05:25.810Z,7.03
2022-10-22T02:07:25.863Z,6.96
2022-10-22T02:09:25.832Z,6.86
2022-10-22T02:11:25.904Z,6.77
2022-10-22T02:13:25.867Z,6.84
2022-10-22T02:15:25.827Z,6.91
2022-10-22T02:18:46.821Z,6.83
2022-10-22T02:20:46.894Z,6.84
2022-10-22T02:22:46.857Z,6.9
2022-10-22T02:24:46.825Z,6.96
2022-10-22T02:26:46.799Z,6.9
2022-10-22T02:28:46.842Z,6.93
2022-10-22T02:30:46.825Z,6.96
2022-10-22T02:34:10.506Z,6.86
2022-10-22T02:36:10.451Z,6.66
2022-10-22T02:38:10.388Z,6.72
2022-10-22T02:40:10.366Z,6.82
2022-10-22T02:42:10.358Z,6.74
2022-10-22T02:44:10.377Z,6.78
2022-10-22T02:46:10.353Z,6.76
2022-10-22T02:49:08.475Z,6.71
2022-10-22T02:51:08.460Z,6.76
2022-10-22T02:53:08.461Z,6.83
2022-10-22T02:55:08.456Z,6.81
2022-10-22T02:57:08.551Z,6.8
2022-10-22T02:59:08.451Z,6.81
2022-10-22T03:01:09.425Z,6.7
2022-10-22T03:04:35.344Z,6.78
2022-10-22T03:06:35.645Z,6.79
2022-10-22T03:08:35.378Z,6.8
2022-10-22T03:10:35.490Z,6.67
2022-10-22T03:12:35.367Z,6.76
2022-10-22T03:14:35.475Z,6.76
2022-10-22T03:16:35.517Z,6.75
2022-10-22T03:19:22.036Z,6.73
2022-10-22T03:21:22.035Z,6.64
2022-10-22T03:23:22.091Z,6.57
2022-10-22T03:25:22.023Z,6.36
2022-10-22T03:27:22.084Z,6.61
2022-10-22T03:29:22.045Z,6.68
2022-10-22T03:31:22.071Z,6.58
2022-10-22T03:34:48.406Z,6.56
2022-10-22T03:36:48.350Z,6.45
2022-10-22T03:38:48.550Z,6.5
2022-10-22T03:40:48.403Z,6.33
2022-10-22T03:42:48.385Z,6.3
2022-10-22T03:44:48.508Z,6.31
2022-10-22T03:46:48.412Z,6.41
2022-10-22T03:49:21.638Z,6.4
2022-10-22T03:51:21.712Z,6.31
2022-10-22T03:53:21.624Z,6.35
2022-10-22T03:55:21.682Z,6.28
2022-10-22T03:57:21.607Z,6.33
2022-10-22T03:59:21.618Z,6.13
2022-10-22T04:01:21.715Z,6.25
2022-10-22T04:03:21.601Z,6.45
2022-10-22T04:04:48.744Z,6.48
2022-10-22T04:06:48.582Z,6.21
2022-10-22T04:08:48.636Z,6.09
2022-10-22T04:10:48.697Z,6.07
2022-10-22T04:12:48.559Z,6.24
2022-10-22T04:14:48.579Z,6.39
2022-10-22T04:16:48.606Z,5.87
2022-10-22T04:20:05.220Z,6.08
2022-10-22T04:22:05.252Z,5.79
2022-10-22T04:24:05.220Z,5.82
2022-10-22T04:26:05.213Z,5.87
2022-10-22T04:28:05.231Z,6.04
2022-10-22T04:30:05.239Z,6.08
2022-10-22T04:32:05.278Z,6.04
2022-10-22T04:35:31.791Z,6.08
2022-10-22T04:37:31.814Z,6.17
2022-10-22T04:39:31.801Z,6.21
2022-10-22T04:41:31.839Z,6.12
2022-10-22T04:43:31.782Z,6.15
2022-10-22T04:45:31.796Z,6.02
2022-10-22T04:47:31.877Z,6.17
2022-10-22T04:49:58.475Z,6.21
2022-10-22T04:51:58.472Z,6.21
2022-10-22T04:53:58.490Z,6.24
2022-10-22T04:55:58.481Z,6.36
2022-10-22T04:57:58.539Z,6.41
2022-10-22T04:59:58.497Z,6.26
2022-10-22T05:01:58.472Z,6.36
2022-10-22T05:03:58.478Z,6.61
2022-10-22T05:05:45.207Z,6.68
2022-10-22T05:07:45.185Z,6.64
2022-10-22T05:09:45.276Z,6.71
2022-10-22T05:11:45.446Z,6.79
2022-10-22T05:13:45.242Z,6.75
2022-10-22T05:15:45.271Z,6.72
2022-10-22T05:17:45.370Z,6.7
2022-10-22T05:20:16.735Z,6.69
2022-10-22T05:22:16.966Z,6.7
2022-10-22T05:24:16.716Z,6.53
2022-10-22T05:26:16.732Z,6.5
2022-10-22T05:28:16.782Z,6.75
2022-10-22T05:30:16.779Z,6.79
2022-10-22T05:32:16.929Z,6.85
2022-10-22T05:34:16.740Z,6.79
2022-10-22T05:35:46.655Z,6.76
2022-10-22T05:37:44.452Z,6.75
2022-10-22T05:39:44.238Z,6.8
2022-10-22T05:41:44.256Z,7.04
2022-10-22T05:43:44.419Z,7.2
2022-10-22T05:45:44.224Z,7.33
2022-10-22T05:47:44.251Z,7.49
2022-10-22T05:50:48.697Z,7.88
2022-10-22T05:52:48.608Z,8.1
2022-10-22T05:54:48.599Z,7.94
2022-10-22T05:56:48.538Z,8.31
2022-10-22T05:58:48.563Z,8.42
2022-10-22T06:00:48.640Z,8.73
2022-10-22T06:02:48.520Z,8.84
2022-10-22T06:06:39.408Z,8.84
2022-10-22T06:08:39.097Z,9.06
2022-10-22T06:10:39.025Z,8.8
2022-10-22T06:12:39.388Z,8.42
2022-10-22T06:14:39.143Z,8.3
2022-10-22T06:16:39.029Z,8.34
2022-10-22T06:18:39.228Z,8.06
2022-10-22T06:21:15.690Z,7.98
2022-10-22T06:23:15.715Z,7.98
2022-10-22T06:25:15.752Z,8.32
2022-10-22T06:27:15.685Z,8.26
2022-10-22T06:29:15.659Z,8.33
2022-10-22T06:31:15.765Z,8.89
2022-10-22T06:33:15.635Z,8.75
2022-10-22T06:36:33.243Z,9.19
2022-10-22T06:38:33.180Z,9.01
2022-10-22T06:40:33.268Z,8.99
2022-10-22T06:42:33.239Z,9.25
2022-10-22T06:44:33.194Z,9.49
2022-10-22T06:46:33.186Z,9.78
2022-10-22T06:48:33.146Z,10.07
2022-10-22T06:52:04.689Z,10
2022-10-22T06:54:04.599Z,9.88
2022-10-22T06:56:04.603Z,10.01
2022-10-22T06:58:04.567Z,9.93
2022-10-22T07:00:04.594Z,10.11
2022-10-22T07:02:04.596Z,10.25
2022-10-22T07:04:04.629Z,9.76
2022-10-22T07:06:50.704Z,9.74
2022-10-22T07:08:51.052Z,9.86
2022-10-22T07:10:50.671Z,10.18
2022-10-22T07:12:50.722Z,10.05
2022-10-22T07:14:50.945Z,9.94
2022-10-22T07:16:50.887Z,9.89
2022-10-22T07:18:50.658Z,10.41
2022-10-22T07:22:14.877Z,10.72
2022-10-22T07:24:14.855Z,10.92
2022-10-22T07:26:14.862Z,11.07
2022-10-22T07:28:14.855Z,11.18
2022-10-22T07:30:14.854Z,11.43
2022-10-22T07:32:14.824Z,11.27
2022-10-22T07:34:14.977Z,11.55
2022-10-22T07:36:47.743Z,11.47
2022-10-22T07:38:47.854Z,11.58
2022-10-22T07:40:47.750Z,11.98
2022-10-22T07:42:47.805Z,12.22
2022-10-22T07:44:47.755Z,12.01
2022-10-22T07:46:48.810Z,11.8
2022-10-22T07:48:47.719Z,11.91
2022-10-22T07:50:47.765Z,11.91
2022-10-22T07:51:54.255Z,11.73
2022-10-22T07:53:54.297Z,12.4
2022-10-22T07:55:54.246Z,12.6
2022-10-22T07:57:54.295Z,12.49
2022-10-22T07:59:54.309Z,12.07
2022-10-22T08:01:54.250Z,11.44
2022-10-22T08:03:54.263Z,11.62
2022-10-22T08:05:54.322Z,11.89
2022-10-22T08:07:31.035Z,12.34
2022-10-22T08:09:31.097Z,12.6
2022-10-22T08:11:31.021Z,13
2022-10-22T08:13:31.071Z,13.23
2022-10-22T08:15:31.023Z,13.94
2022-10-22T08:17:31.020Z,13.86
2022-10-22T08:19:30.989Z,13.56
2022-10-22T08:22:14.303Z,13.55
2022-10-22T08:24:14.431Z,13.17
2022-10-22T08:26:14.322Z,13.06
2022-10-22T08:28:16.475Z,13.44
2022-10-22T08:30:14.344Z,13.39
2022-10-22T08:32:14.333Z,13.8
2022-10-22T08:34:14.333Z,14.41
2022-10-22T08:36:14.426Z,14.28
2022-10-22T08:37:35.950Z,14.3
2022-10-22T08:39:35.893Z,14.36
2022-10-22T08:41:35.921Z,14.62
2022-10-22T08:43:35.845Z,14.54
2022-10-22T08:45:35.884Z,14.51
2022-10-22T08:47:35.855Z,14.74
2022-10-22T08:49:37.191Z,14.77
2022-10-22T08:53:08.478Z,15.44
2022-10-22T08:55:08.489Z,15.5
2022-10-22T08:57:08.529Z,15.59
2022-10-22T08:59:08.480Z,15.66
2022-10-22T09:01:08.547Z,15.87
2022-10-22T09:03:08.484Z,16.48
2022-10-22T09:05:10.144Z,16
2022-10-22T09:08:33.292Z,16.36
2022-10-22T09:10:33.306Z,16.76
2022-10-22T09:12:33.247Z,16.73
2022-10-22T09:14:33.216Z,16.56
2022-10-22T09:16:33.257Z,16.97
2022-10-22T09:18:33.253Z,15.84
2022-10-22T09:20:33.293Z,16.9
2022-10-22T09:23:03.603Z,17.82
2022-10-22T09:25:03.614Z,17.04
2022-10-22T09:27:03.644Z,15.86
2022-10-22T09:29:03.605Z,16.15
2022-10-22T09:31:03.790Z,17.05
2022-10-22T09:33:03.730Z,16.78
2022-10-22T09:35:03.643Z,17.63
2022-10-22T09:38:27.966Z,18.01
2022-10-22T09:40:27.773Z,17.97
2022-10-22T09:42:27.852Z,18.09
2022-10-22T09:44:27.777Z,18.52
2022-10-22T09:46:27.805Z,18.93
2022-10-22T09:48:27.775Z,19.45
2022-10-22T09:50:28.137Z,19.7
2022-10-22T09:53:30.367Z,19.61
2022-10-22T09:55:30.482Z,19.67
2022-10-22T09:57:30.370Z,19.54
2022-10-22T09:59:30.346Z,18.73
2022-10-22T10:01:30.396Z,19.52
2022-10-22T10:03:30.396Z,20.03
2022-10-22T10:05:30.374Z,20.39
2022-10-22T10:08:50.307Z,19.3
2022-10-22T10:10:50.208Z,19.42
2022-10-22T10:12:50.210Z,19.49
2022-10-22T10:14:50.232Z,19.38
2022-10-22T10:16:50.245Z,19.04
2022-10-22T10:18:50.252Z,19.68
2022-10-22T10:20:50.236Z,20.04
2022-10-22T10:23:46.722Z,20.4
2022-10-22T10:25:46.753Z,20.6
2022-10-22T10:27:46.726Z,20.41
2022-10-22T10:29:46.723Z,20.56
2022-10-22T10:31:46.760Z,20.41
2022-10-22T10:33:46.731Z,20.66
2022-10-22T10:35:46.751Z,20.53
2022-10-22T10:38:54.307Z,20.47
2022-10-22T10:40:54.246Z,20.37
2022-10-22T10:42:54.241Z,20.26
2022-10-22T10:44:54.457Z,19.54
2022-10-22T10:46:54.254Z,20.25
2022-10-22T10:48:54.237Z,20.5
2022-10-22T10:50:54.247Z,20.55
2022-10-22T10:54:18.033Z,20.75
2022-10-22T10:56:18.076Z,20.98
2022-10-22T10:58:18.107Z,20.59
2022-10-22T11:00:18.030Z,20.66
2022-10-22T11:02:18.038Z,21.11
2022-10-22T11:04:18.027Z,21.36
2022-10-22T11:06:18.591Z,21.13
2022-10-22T11:09:48.350Z,20.94
2022-10-22T11:11:48.352Z,21.1
2022-10-22T11:13:48.349Z,21.05
2022-10-22T11:15:48.333Z,21.16
2022-10-22T11:17:48.369Z,21.39
2022-10-22T11:19:53.063Z,21.29
2022-10-22T11:21:48.359Z,21.35
2022-10-22T11:25:04.653Z,21.08
2022-10-22T11:27:04.710Z,21.28
2022-10-22T11:29:04.641Z,21.15
2022-10-22T11:31:04.640Z,20.73
2022-10-22T11:33:04.681Z,21.02
2022-10-22T11:35:04.647Z,20.88
2022-10-22T11:37:04.668Z,21.1
2022-10-22T11:40:08.078Z,21.4
2022-10-22T11:42:08.106Z,21.46
2022-10-22T11:44:08.076Z,21.22
2022-10-22T11:46:08.072Z,21.14
2022-10-22T11:48:07.992Z,21.36
2022-10-22T11:50:08.048Z,21.44
2022-10-22T11:52:08.070Z,20.8
2022-10-22T11:54:43.002Z,20.96
2022-10-22T11:56:43.062Z,21.16
2022-10-22T11:58:43.013Z,21.29
2022-10-22T12:00:42.973Z,21.33
2022-10-22T12:02:43.241Z,21.39
2022-10-22T12:04:43.021Z,21.57
2022-10-22T12:06:42.930Z,21.45
2022-10-22T12:09:48.188Z,21.65
2022-10-22T12:11:48.179Z,21.79
2022-10-22T12:13:48.179Z,21.93
2022-10-22T12:15:48.147Z,21.78
2022-10-22T12:17:48.131Z,21.9
2022-10-22T12:19:48.163Z,21.84
2022-10-22T12:21:48.176Z,21.88
2022-10-22T12:25:21.423Z,21.8
2022-10-22T12:27:22.341Z,21.73
2022-10-22T12:29:21.392Z,21.65
2022-10-22T12:31:21.378Z,21.57
2022-10-22T12:33:21.467Z,21.17
2022-10-22T12:35:21.414Z,21.36
2022-10-22T12:37:21.440Z,21.52
2022-10-22T12:40:49.302Z,21.6
2022-10-22T12:42:49.102Z,21.74
2022-10-22T12:44:49.147Z,21.71
2022-10-22T12:46:50.625Z,21.63
2022-10-22T12:48:49.142Z,21.63
2022-10-22T12:50:49.101Z,21.62
2022-10-22T12:52:49.099Z,21.44
2022-10-22T12:56:04.583Z,21.64
2022-10-22T12:58:04.553Z,21.78
2022-10-22T13:00:04.556Z,21.83
2022-10-22T13:02:06.756Z,21.84
2022-10-22T13:04:04.585Z,21.81
2022-10-22T13:06:04.540Z,21.8
2022-10-22T13:08:04.552Z,21.72
2022-10-22T13:10:19.372Z,21.62
2022-10-22T13:12:19.350Z,21.59
2022-10-22T13:14:19.334Z,21.54
2022-10-22T13:16:19.325Z,21.59
2022-10-22T13:18:19.370Z,21.72
2022-10-22T13:20:19.343Z,21.8
2022-10-22T13:22:19.313Z,21.77
2022-10-22T13:24:19.330Z,21.66
2022-10-22T13:26:02.790Z,21.59
2022-10-22T13:28:02.843Z,21.73
2022-10-22T13:30:02.779Z,21.73
2022-10-22T13:32:02.792Z,21.66
2022-10-22T13:34:03.711Z,21.59
2022-10-22T13:36:02.791Z,21.37
2022-10-22T13:38:02.825Z,21.41
2022-10-22T13:41:26.462Z,21.13
2022-10-22T13:43:26.389Z,21.32
2022-10-22T13:45:26.375Z,21.4
2022-10-22T13:47:26.475Z,21.19
2022-10-22T13:49:26.381Z,21.14
2022-10-22T13:51:26.422Z,20.77
2022-10-22T13:53:26.380Z,21.01
2022-10-22T13:56:44.872Z,21
2022-10-22T13:58:44.903Z,21.19
2022-10-22T14:00:44.883Z,21.23
2022-10-22T14:02:44.849Z,21.16
2022-10-22T14:04:44.894Z,21.24
2022-10-22T14:06:44.847Z,21.36
2022-10-22T14:08:44.946Z,21.4
2022-10-22T14:11:31.003Z,21.3
2022-10-22T14:13:30.972Z,21.26
2022-10-22T14:15:31.018Z,21.1
2022-10-22T14:17:30.934Z,20.81
2022-10-22T14:19:30.943Z,20.81
2022-10-22T14:21:30.977Z,20.72
2022-10-22T14:23:30.934Z,20.75
2022-10-22T14:26:45.787Z,20.87
2022-10-22T14:29:04.395Z,20.81
2022-10-22T14:30:45.816Z,20.8
2022-10-22T14:32:45.829Z,20.79
2022-10-22T14:34:45.783Z,20.65
2022-10-22T14:36:45.786Z,20.67
2022-10-22T14:38:45.817Z,20.57
2022-10-22T14:41:44.557Z,20.59
2022-10-22T14:43:44.502Z,20.51
2022-10-22T14:45:44.554Z,19.93
2022-10-22T14:47:44.521Z,20.2
2022-10-22T14:49:44.481Z,20.24
2022-10-22T14:51:44.503Z,20.14
2022-10-22T14:53:44.527Z,20.01
2022-10-22T14:56:54.030Z,19.62
2022-10-22T14:58:54.095Z,19.55
2022-10-22T15:00:54.122Z,19.58
2022-10-22T15:02:54.055Z,19.55
2022-10-22T15:04:54.052Z,19.41
2022-10-22T15:06:54.028Z,18.97
2022-10-22T15:08:54.037Z,19.18
2022-10-22T15:11:48.890Z,19.25
2022-10-22T15:13:48.947Z,19.24
2022-10-22T15:15:48.935Z,19.18
2022-10-22T15:17:48.880Z,19.03
2022-10-22T15:19:48.904Z,18.97
2022-10-22T15:21:48.909Z,18.92
2022-10-22T15:23:48.880Z,18.71
2022-10-22T15:27:35.342Z,18.57
2022-10-22T15:29:35.380Z,18.62
2022-10-22T15:31:35.347Z,18.58
2022-10-22T15:33:35.451Z,18.57
2022-10-22T15:35:35.346Z,18.45
2022-10-22T15:37:35.368Z,18.38
2022-10-22T15:39:35.356Z,18.27
2022-10-22T15:42:46.258Z,18.12
2022-10-22T15:44:46.230Z,18.06
2022-10-22T15:46:46.382Z,17.96
2022-10-22T15:48:46.241Z,17.83
2022-10-22T15:50:46.304Z,17.76
2022-10-22T15:52:46.281Z,17.65
2022-10-22T15:54:46.257Z,17.61
2022-10-22T15:57:14.965Z,17.48
2022-10-22T15:59:14.817Z,17.45
2022-10-22T16:01:14.971Z,17.44
2022-10-22T16:03:14.761Z,17.36
2022-10-22T16:05:14.764Z,17.27
2022-10-22T16:07:14.865Z,17.29
2022-10-22T16:09:14.881Z,17.14
2022-10-22T16:11:14.772Z,17.09
2022-10-22T16:12:37.454Z,17.01
2022-10-22T16:14:37.424Z,17.05
2022-10-22T16:16:37.497Z,16.97
2022-10-22T16:18:37.440Z,16.9
2022-10-22T16:20:37.480Z,16.84
2022-10-22T16:22:37.456Z,16.84
2022-10-22T16:24:37.425Z,16.84
2022-10-22T16:27:58.270Z,16.78
2022-10-22T16:29:58.224Z,16.78
2022-10-22T16:31:58.306Z,16.66
2022-10-22T16:33:58.536Z,16.46
2022-10-22T16:35:58.224Z,16.25
2022-10-22T16:37:58.251Z,16.31
2022-10-22T16:39:58.216Z,16.29
2022-10-22T16:43:07.792Z,16.24
2022-10-22T16:45:07.851Z,16.32
2022-10-22T16:47:07.907Z,16.4
2022-10-22T16:49:07.754Z,16.29
2022-10-22T16:51:07.810Z,16.36
2022-10-22T16:53:07.818Z,16.02
2022-10-22T16:55:07.772Z,16.1
2022-10-22T16:58:46.321Z,16.29
2022-10-22T17:00:46.388Z,16.31
2022-10-22T17:02:46.338Z,16.04
2022-10-22T17:04:46.302Z,16.18
2022-10-22T17:06:46.326Z,16.11
2022-10-22T17:08:46.361Z,16.2
2022-10-22T17:10:46.384Z,16.09
2022-10-22T17:13:50.209Z,16.14
2022-10-22T17:15:50.398Z,16.23
2022-10-22T17:17:50.182Z,16.21
2022-10-22T17:19:50.237Z,16.06
2022-10-22T17:21:50.256Z,16.18
2022-10-22T17:23:50.271Z,16.17
2022-10-22T17:25:50.178Z,16.12
2022-10-22T17:28:28.562Z,16.13
2022-10-22T17:30:28.523Z,16.11
2022-10-22T17:32:28.517Z,16.12
2022-10-22T17:34:28.588Z,15.97
2022-10-22T17:36:30.384Z,16.02
2022-10-22T17:38:28.588Z,15.87
2022-10-22T17:40:28.627Z,15.86
2022-10-22T17:43:49.235Z,15.67
2022-10-22T17:45:49.283Z,15.68
2022-10-22T17:47:49.243Z,15.55
2022-10-22T17:49:49.252Z,15.6
2022-10-22T17:51:49.393Z,15.62
2022-10-22T17:53:49.408Z,15.61
2022-10-22T17:55:49.313Z,15.62
2022-10-22T17:59:26.283Z,15.49
2022-10-22T18:01:26.365Z,15.51
2022-10-22T18:03:26.383Z,15.47
2022-10-22T18:05:26.386Z,15.43
2022-10-22T18:07:26.307Z,15.37
2022-10-22T18:09:26.476Z,15.37
2022-10-22T18:11:26.277Z,15.39
2022-10-22T18:14:08.001Z,14.91
2022-10-22T18:16:08.014Z,15.14
2022-10-22T18:18:08.108Z,15.33
2022-10-22T18:20:07.999Z,15.35
2022-10-22T18:22:08.069Z,15.38
2022-10-22T18:24:08.015Z,15.36
2022-10-22T18:26:08.007Z,15.3
2022-10-22T18:29:39.504Z,15.25
2022-10-22T18:31:39.463Z,15.23
2022-10-22T18:33:39.427Z,15.18
2022-10-22T18:35:39.413Z,15.13
2022-10-22T18:37:39.749Z,15.12
2022-10-22T18:39:39.461Z,15.03
2022-10-22T18:41:39.425Z,15.03
2022-10-22T18:44:27.365Z,14.91
2022-10-22T18:46:27.332Z,14.93
2022-10-22T18:48:27.305Z,14.87
2022-10-22T18:50:27.340Z,14.81
2022-10-22T18:52:27.290Z,14.81
2022-10-22T18:54:27.308Z,14.72
2022-10-22T18:56:27.372Z,14.62
2022-10-22T18:59:54.579Z,14.54
2022-10-22T19:01:53.178Z,14.54
2022-10-22T19:03:53.201Z,14.49
2022-10-22T19:05:53.098Z,14.49
2022-10-22T19:07:53.122Z,14.57
2022-10-22T19:09:53.153Z,14.46
2022-10-22T19:11:53.093Z,14.31
2022-10-22T19:14:49.779Z,14.17
2022-10-22T19:16:49.795Z,14.14
2022-10-22T19:18:49.793Z,14.16
2022-10-22T19:20:49.831Z,14.15
2022-10-22T19:22:49.827Z,14.23
2022-10-22T19:24:49.757Z,14.1
2022-10-22T19:26:49.967Z,14.19
2022-10-22T19:29:33.210Z,14.11
2022-10-22T19:31:33.258Z,14.04
2022-10-22T19:33:33.194Z,14.01
2022-10-22T19:35:33.236Z,13.99
2022-10-22T19:37:33.255Z,13.98
2022-10-22T19:39:33.197Z,13.99
2022-10-22T19:41:33.390Z,13.92
2022-10-22T19:43:33.208Z,13.95
2022-10-22T19:45:21.324Z,13.93
2022-10-22T19:47:21.418Z,13.87
2022-10-22T19:49:22.235Z,13.82
2022-10-22T19:51:21.402Z,13.81
2022-10-22T19:53:21.316Z,13.8
2022-10-22T19:55:21.329Z,13.76
2022-10-22T19:57:21.359Z,13.77
2022-10-22T20:00:18.948Z,13.54
2022-10-22T20:02:18.823Z,13.62
2022-10-22T20:04:18.773Z,13.58
2022-10-22T20:06:18.833Z,13.63
2022-10-22T20:08:18.794Z,13.5
2022-10-22T20:10:18.751Z,13.55
2022-10-22T20:12:18.824Z,13.5
2022-10-22T20:15:27.687Z,13.44
2022-10-22T20:17:27.771Z,13.4
2022-10-22T20:19:27.688Z,13.27
2022-10-22T20:21:27.647Z,13.23
2022-10-22T20:23:27.669Z,13.28
2022-10-22T20:25:27.727Z,13.31
2022-10-22T20:27:27.643Z,13.25
2022-10-22T20:31:02.973Z,13.17
2022-10-22T20:33:03.005Z,13.16
2022-10-22T20:35:02.911Z,13.07
2022-10-22T20:37:02.937Z,13.01
2022-10-22T20:39:03.021Z,13.02
2022-10-22T20:41:02.956Z,13.06
2022-10-22T20:43:02.917Z,13
2022-10-22T20:45:40.694Z,12.99
2022-10-22T20:47:50.667Z,12.91
2022-10-22T20:49:40.554Z,12.91
2022-10-22T20:51:40.542Z,12.98
2022-10-22T20:53:40.516Z,12.88
2022-10-22T20:55:40.590Z,12.79
2022-10-22T20:57:40.813Z,12.72
2022-10-22T21:01:02.665Z,12.77
2022-10-22T21:03:02.811Z,12.71
2022-10-22T21:05:02.656Z,12.64
2022-10-22T21:07:02.590Z,12.67
2022-10-22T21:09:02.703Z,12.69
2022-10-22T21:11:02.612Z,12.66
2022-10-22T21:13:02.622Z,12.66
2022-10-22T21:15:44.528Z,12.67
2022-10-22T21:17:44.488Z,12.64
2022-10-22T21:19:44.462Z,12.73
2022-10-22T21:21:44.478Z,12.67
2022-10-22T21:23:44.434Z,12.69
2022-10-22T21:25:44.423Z,12.65
2022-10-22T21:27:44.480Z,12.6
2022-10-22T21:29:44.431Z,12.57
2022-10-22T21:31:28.789Z,12.43
2022-10-22T21:33:28.776Z,12.62
2022-10-22T21:35:28.754Z,12.71
2022-10-22T21:37:28.761Z,12.57
2022-10-22T21:39:28.752Z,12.56
2022-10-22T21:41:28.904Z,12.6
2022-10-22T21:43:28.824Z,12.52
2022-10-22T21:46:11.262Z,12.58
2022-10-22T21:48:11.264Z,12.42
2022-10-22T21:50:11.254Z,12.51
2022-10-22T21:52:11.277Z,12.51
2022-10-22T21:54:11.252Z,12.61
2022-10-22T21:56:11.250Z,12.59
2022-10-22T21:58:11.252Z,12.45
2022-10-22T22:01:23.246Z,12.48
2022-10-22T22:03:23.082Z,12.33
2022-10-22T22:05:23.290Z,12.34
2022-10-22T22:07:23.103Z,12.44
2022-10-22T22:09:23.188Z,12.3
2022-10-22T22:11:23.093Z,12.41
2022-10-22T22:13:23.084Z,12.41
2022-10-22T22:17:00.842Z,12.33
2022-10-22T22:19:00.864Z,12.23
2022-10-22T22:21:00.797Z,12.24
2022-10-22T22:23:00.776Z,12.11
2022-10-22T22:25:00.801Z,12.05
2022-10-22T22:27:00.779Z,12.02
2022-10-22T22:29:00.771Z,11.97
2022-10-22T22:31:40.984Z,11.93
2022-10-22T22:33:40.985Z,11.99
2022-10-22T22:35:40.987Z,11.93
2022-10-22T22:37:41.249Z,11.79
2022-10-22T22:39:40.968Z,11.82
2022-10-22T22:41:40.959Z,11.86
2022-10-22T22:43:40.936Z,11.71
2022-10-22T22:46:45.542Z,11.78
2022-10-22T22:48:45.567Z,11.78
2022-10-22T22:50:45.549Z,11.73
2022-10-22T22:52:45.527Z,11.91
2022-10-22T22:54:45.518Z,11.86
2022-10-22T22:56:45.523Z,11.74
2022-10-22T22:58:45.591Z,11.69
2022-10-22T23:00:45.563Z,11.59
2022-10-22T23:02:12.217Z,11.61
2022-10-22T23:04:12.241Z,11.76
2022-10-22T23:06:12.188Z,11.82
2022-10-22T23:08:12.166Z,11.87
2022-10-22T23:10:12.203Z,11.85
2022-10-22T23:12:12.175Z,11.81
2022-10-22T23:14:12.216Z,11.81
2022-10-22T23:17:53.355Z,11.7
2022-10-22T23:19:53.333Z,11.68
2022-10-22T23:21:53.313Z,11.66
2022-10-22T23:23:53.385Z,11.73
2022-10-22T23:25:53.382Z,11.8
2022-10-22T23:27:53.324Z,11.74
2022-10-22T23:29:53.371Z,11.75
2022-10-22T23:32:28.157Z,11.74
2022-10-22T23:34:28.160Z,11.76
2022-10-22T23:36:28.198Z,11.71
2022-10-22T23:38:28.199Z,11.52
2022-10-22T23:40:28.168Z,11.38
2022-10-22T23:42:28.196Z,11.54
2022-10-22T23:44:28.195Z,11.65
2022-10-22T23:47:26.051Z,11.59
2022-10-22T23:49:26.688Z,11.52
2022-10-22T23:51:26.063Z,11.45
2022-10-22T23:53:26.066Z,11.45
2022-10-22T23:55:26.139Z,11.34
2022-10-22T23:57:26.053Z,11.4
2022-10-22T23:59:26.106Z,11.35
